sensor_id;sensor_type;location;lat;lon;timestamp;P1;durP1;ratioP1;P2;durP2;ratioP2
9254;SDS011;4663;49.120;9.730;2022-08-19T00:01:30;41.55;;;39.25;;
9254;SDS011;4663;49.120;9.730;2022-08-19T00:03:57;42.45;;;39.97;;
9254;SDS011;4663;49.120;9.730;2022-08-19T00:06:23;44.65;;;42.10;;
9254;SDS011;4663;49.120;9.730;2022-08-19T00:08:49;42.65;;;40.15;;
9254;SDS011;4663;49.120;9.730;2022-08-19T00:11:16;40.80;;;38.40;;
9254;SDS011;4663;49.120;9.730;2022-08-19T00:13:42;44.58;;;42.00;;
9254;SDS011;4663;49.120;9.730;2022-08-19T00:16:07;44.15;;;40.97;;
9254;SDS011;4663;49.120;9.730;2022-08-19T00:18:33;43.28;;;40.67;;
9254;SDS011;4663;49.120;9.730;2022-08-19T00:20:59;44.75;;;42.15;;
9254;SDS011;4663;49.120;9.730;2022-08-19T00:23:25;44.13;;;41.47;;
9254;SDS011;4663;49.120;9.730;2022-08-19T00:25:52;45.00;;;42.28;;
9254;SDS011;4663;49.120;9.730;2022-08-19T00:28:18;43.45;;;40.92;;
9254;SDS011;4663;49.120;9.730;2022-08-19T00:30:43;46.42;;;43.63;;
9254;SDS011;4663;49.120;9.730;2022-08-19T00:33:09;43.85;;;41.38;;
9254;SDS011;4663;49.120;9.730;2022-08-19T00:35:35;44.63;;;41.92;;
9254;SDS011;4663;49.120;9.730;2022-08-19T00:38:02;45.28;;;42.67;;
9254;SDS011;4663;49.120;9.730;2022-08-19T00:40:30;42.78;;;40.30;;
9254;SDS011;4663;49.120;9.730;2022-08-19T00:42:56;44.92;;;42.22;;
9254;SDS011;4663;49.120;9.730;2022-08-19T00:45:22;44.53;;;41.90;;
9254;SDS011;4663;49.120;9.730;2022-08-19T00:47:49;42.80;;;40.22;;
9254;SDS011;4663;49.120;9.730;2022-08-19T00:50:15;40.50;;;38.10;;
9254;SDS011;4663;49.120;9.730;2022-08-19T00:52:45;43.92;;;41.35;;
9254;SDS011;4663;49.120;9.730;2022-08-19T00:55:20;44.30;;;41.78;;
9254;SDS011;4663;49.120;9.730;2022-08-19T00:57:51;45.50;;;42.90;;
9254;SDS011;4663;49.120;9.730;2022-08-19T01:00:20;42.50;;;39.95;;
9254;SDS011;4663;49.120;9.730;2022-08-19T01:02:48;42.30;;;39.90;;
9254;SDS011;4663;49.120;9.730;2022-08-19T01:05:18;41.53;;;39.10;;
9254;SDS011;4663;49.120;9.730;2022-08-19T01:07:46;42.75;;;40.25;;
9254;SDS011;4663;49.120;9.730;2022-08-19T01:10:14;43.92;;;41.33;;
9254;SDS011;4663;49.120;9.730;2022-08-19T01:12:43;42.22;;;39.72;;
9254;SDS011;4663;49.120;9.730;2022-08-19T01:15:11;39.38;;;37.08;;
9254;SDS011;4663;49.120;9.730;2022-08-19T01:17:41;42.08;;;39.67;;
9254;SDS011;4663;49.120;9.730;2022-08-19T01:20:09;40.72;;;38.33;;
9254;SDS011;4663;49.120;9.730;2022-08-19T01:22:50;41.72;;;39.35;;
9254;SDS011;4663;49.120;9.730;2022-08-19T01:25:27;40.00;;;37.70;;
9254;SDS011;4663;49.120;9.730;2022-08-19T01:27:59;42.45;;;40.05;;
9254;SDS011;4663;49.120;9.730;2022-08-19T01:30:26;42.63;;;40.22;;
9254;SDS011;4663;49.120;9.730;2022-08-19T01:32:56;44.10;;;41.60;;
9254;SDS011;4663;49.120;9.730;2022-08-19T01:35:22;43.90;;;41.38;;
9254;SDS011;4663;49.120;9.730;2022-08-19T01:37:54;40.80;;;38.50;;
9254;SDS011;4663;49.120;9.730;2022-08-19T01:40:31;44.17;;;41.67;;
9254;SDS011;4663;49.120;9.730;2022-08-19T01:42:58;39.67;;;37.33;;
9254;SDS011;4663;49.120;9.730;2022-08-19T01:45:25;39.80;;;37.45;;
9254;SDS011;4663;49.120;9.730;2022-08-19T01:47:53;40.50;;;38.00;;
9254;SDS011;4663;49.120;9.730;2022-08-19T01:50:19;39.22;;;36.90;;
9254;SDS011;4663;49.120;9.730;2022-08-19T01:52:45;40.70;;;38.17;;
9254;SDS011;4663;49.120;9.730;2022-08-19T01:55:12;40.42;;;38.03;;
9254;SDS011;4663;49.120;9.730;2022-08-19T01:57:42;39.10;;;36.88;;
9254;SDS011;4663;49.120;9.730;2022-08-19T02:00:12;38.08;;;35.92;;
9254;SDS011;4663;49.120;9.730;2022-08-19T02:02:40;36.28;;;34.08;;
9254;SDS011;4663;49.120;9.730;2022-08-19T02:05:06;36.95;;;34.70;;
9254;SDS011;4663;49.120;9.730;2022-08-19T02:07:33;39.15;;;36.88;;
9254;SDS011;4663;49.120;9.730;2022-08-19T02:10:01;37.25;;;35.05;;
9254;SDS011;4663;49.120;9.730;2022-08-19T02:12:28;38.35;;;36.15;;
9254;SDS011;4663;49.120;9.730;2022-08-19T02:14:54;40.03;;;37.63;;
9254;SDS011;4663;49.120;9.730;2022-08-19T02:17:19;37.47;;;35.20;;
9254;SDS011;4663;49.120;9.730;2022-08-19T02:19:45;36.97;;;34.88;;
9254;SDS011;4663;49.120;9.730;2022-08-19T02:22:10;39.92;;;37.55;;
9254;SDS011;4663;49.120;9.730;2022-08-19T02:24:36;37.33;;;35.17;;
9254;SDS011;4663;49.120;9.730;2022-08-19T02:27:01;39.00;;;36.75;;
9254;SDS011;4663;49.120;9.730;2022-08-19T02:29:27;37.55;;;35.38;;
9254;SDS011;4663;49.120;9.730;2022-08-19T02:31:52;35.78;;;33.70;;
9254;SDS011;4663;49.120;9.730;2022-08-19T02:34:18;36.33;;;34.10;;
9254;SDS011;4663;49.120;9.730;2022-08-19T02:36:43;35.58;;;33.53;;
9254;SDS011;4663;49.120;9.730;2022-08-19T02:39:09;36.65;;;34.40;;
9254;SDS011;4663;49.120;9.730;2022-08-19T02:41:35;38.38;;;35.97;;
9254;SDS011;4663;49.120;9.730;2022-08-19T02:44:01;37.05;;;34.85;;
9254;SDS011;4663;49.120;9.730;2022-08-19T02:46:30;36.30;;;34.05;;
9254;SDS011;4663;49.120;9.730;2022-08-19T02:48:59;35.70;;;33.58;;
9254;SDS011;4663;49.120;9.730;2022-08-19T02:51:27;34.05;;;31.90;;
9254;SDS011;4663;49.120;9.730;2022-08-19T02:53:55;34.90;;;32.80;;
9254;SDS011;4663;49.120;9.730;2022-08-19T02:56:21;35.83;;;33.65;;
9254;SDS011;4663;49.120;9.730;2022-08-19T02:58:47;35.20;;;33.15;;
9254;SDS011;4663;49.120;9.730;2022-08-19T03:04:06;33.70;;;31.60;;
9254;SDS011;4663;49.120;9.730;2022-08-19T03:06:35;34.38;;;32.25;;
9254;SDS011;4663;49.120;9.730;2022-08-19T03:09:02;35.58;;;33.38;;
9254;SDS011;4663;49.120;9.730;2022-08-19T03:11:28;38.05;;;35.85;;
9254;SDS011;4663;49.120;9.730;2022-08-19T03:13:56;35.47;;;33.35;;
9254;SDS011;4663;49.120;9.730;2022-08-19T03:16:23;35.72;;;33.63;;
9254;SDS011;4663;49.120;9.730;2022-08-19T03:18:50;33.88;;;31.77;;
9254;SDS011;4663;49.120;9.730;2022-08-19T03:21:17;33.17;;;31.23;;
9254;SDS011;4663;49.120;9.730;2022-08-19T03:23:44;32.90;;;31.00;;
9254;SDS011;4663;49.120;9.730;2022-08-19T03:26:10;36.58;;;34.38;;
9254;SDS011;4663;49.120;9.730;2022-08-19T03:28:35;34.75;;;32.65;;
9254;SDS011;4663;49.120;9.730;2022-08-19T03:31:03;36.13;;;33.88;;
9254;SDS011;4663;49.120;9.730;2022-08-19T03:33:32;36.67;;;34.47;;
9254;SDS011;4663;49.120;9.730;2022-08-19T03:35:59;35.40;;;33.30;;
9254;SDS011;4663;49.120;9.730;2022-08-19T03:38:26;35.60;;;33.50;;
9254;SDS011;4663;49.120;9.730;2022-08-19T03:40:52;36.92;;;34.63;;
9254;SDS011;4663;49.120;9.730;2022-08-19T03:43:17;36.90;;;34.70;;
9254;SDS011;4663;49.120;9.730;2022-08-19T03:45:43;37.30;;;35.00;;
9254;SDS011;4663;49.120;9.730;2022-08-19T03:48:08;34.97;;;32.72;;
9254;SDS011;4663;49.120;9.730;2022-08-19T03:50:38;35.03;;;32.88;;
9254;SDS011;4663;49.120;9.730;2022-08-19T03:53:04;33.60;;;31.50;;
9254;SDS011;4663;49.120;9.730;2022-08-19T03:55:29;37.03;;;34.83;;
9254;SDS011;4663;49.120;9.730;2022-08-19T03:57:55;34.78;;;32.70;;
9254;SDS011;4663;49.120;9.730;2022-08-19T04:00:21;36.05;;;33.92;;
9254;SDS011;4663;49.120;9.730;2022-08-19T04:02:46;34.72;;;32.55;;
9254;SDS011;4663;49.120;9.730;2022-08-19T04:05:12;35.95;;;33.75;;
9254;SDS011;4663;49.120;9.730;2022-08-19T04:07:38;37.03;;;34.83;;
9254;SDS011;4663;49.120;9.730;2022-08-19T04:10:04;36.95;;;34.50;;
9254;SDS011;4663;49.120;9.730;2022-08-19T04:12:30;35.60;;;33.50;;
9254;SDS011;4663;49.120;9.730;2022-08-19T04:14:56;35.15;;;33.05;;
9254;SDS011;4663;49.120;9.730;2022-08-19T04:17:23;35.17;;;33.03;;
9254;SDS011;4663;49.120;9.730;2022-08-19T04:19:48;32.58;;;30.58;;
9254;SDS011;4663;49.120;9.730;2022-08-19T04:22:14;34.15;;;32.00;;
9254;SDS011;4663;49.120;9.730;2022-08-19T04:24:39;33.10;;;31.08;;
9254;SDS011;4663;49.120;9.730;2022-08-19T04:27:05;33.90;;;31.90;;
9254;SDS011;4663;49.120;9.730;2022-08-19T04:29:31;35.65;;;33.45;;
9254;SDS011;4663;49.120;9.730;2022-08-19T04:31:57;35.03;;;32.83;;
9254;SDS011;4663;49.120;9.730;2022-08-19T04:34:25;34.15;;;32.08;;
9254;SDS011;4663;49.120;9.730;2022-08-19T04:36:52;35.97;;;33.78;;
9254;SDS011;4663;49.120;9.730;2022-08-19T04:39:21;34.63;;;32.42;;
9254;SDS011;4663;49.120;9.730;2022-08-19T04:42:09;35.20;;;32.88;;
9254;SDS011;4663;49.120;9.730;2022-08-19T04:44:54;34.88;;;32.65;;
9254;SDS011;4663;49.120;9.730;2022-08-19T04:47:19;34.20;;;32.15;;
9254;SDS011;4663;49.120;9.730;2022-08-19T04:49:45;35.13;;;32.90;;
9254;SDS011;4663;49.120;9.730;2022-08-19T04:52:10;33.53;;;31.50;;
9254;SDS011;4663;49.120;9.730;2022-08-19T04:54:35;34.05;;;32.00;;
9254;SDS011;4663;49.120;9.730;2022-08-19T04:57:01;35.38;;;33.28;;
9254;SDS011;4663;49.120;9.730;2022-08-19T04:59:26;35.75;;;33.55;;
9254;SDS011;4663;49.120;9.730;2022-08-19T05:01:51;35.67;;;33.42;;
9254;SDS011;4663;49.120;9.730;2022-08-19T05:04:18;35.33;;;33.22;;
9254;SDS011;4663;49.120;9.730;2022-08-19T05:06:45;36.35;;;34.05;;
9254;SDS011;4663;49.120;9.730;2022-08-19T05:09:13;35.25;;;32.95;;
9254;SDS011;4663;49.120;9.730;2022-08-19T05:11:39;35.40;;;33.22;;
9254;SDS011;4663;49.120;9.730;2022-08-19T05:14:05;35.55;;;33.30;;
9254;SDS011;4663;49.120;9.730;2022-08-19T05:16:33;34.80;;;32.53;;
9254;SDS011;4663;49.120;9.730;2022-08-19T05:18:59;34.72;;;32.63;;
9254;SDS011;4663;49.120;9.730;2022-08-19T05:21:43;35.03;;;32.90;;
9254;SDS011;4663;49.120;9.730;2022-08-19T05:24:28;35.10;;;32.95;;
9254;SDS011;4663;49.120;9.730;2022-08-19T05:26:55;34.92;;;32.75;;
9254;SDS011;4663;49.120;9.730;2022-08-19T05:29:24;36.63;;;34.00;;
9254;SDS011;4663;49.120;9.730;2022-08-19T05:31:51;37.05;;;34.60;;
9254;SDS011;4663;49.120;9.730;2022-08-19T05:34:18;35.55;;;33.35;;
9254;SDS011;4663;49.120;9.730;2022-08-19T05:36:47;38.80;;;36.38;;
9254;SDS011;4663;49.120;9.730;2022-08-19T05:39:19;35.15;;;32.92;;
9254;SDS011;4663;49.120;9.730;2022-08-19T05:41:47;34.10;;;31.88;;
9254;SDS011;4663;49.120;9.730;2022-08-19T05:44:14;35.55;;;33.28;;
9254;SDS011;4663;49.120;9.730;2022-08-19T05:46:42;34.50;;;32.13;;
9254;SDS011;4663;49.120;9.730;2022-08-19T05:49:11;35.45;;;33.05;;
9254;SDS011;4663;49.120;9.730;2022-08-19T05:51:38;32.97;;;30.77;;
9254;SDS011;4663;49.120;9.730;2022-08-19T05:54:04;36.70;;;34.38;;
9254;SDS011;4663;49.120;9.730;2022-08-19T05:56:31;36.55;;;34.15;;
9254;SDS011;4663;49.120;9.730;2022-08-19T05:58:57;37.88;;;34.90;;
9254;SDS011;4663;49.120;9.730;2022-08-19T06:01:23;35.72;;;33.45;;
9254;SDS011;4663;49.120;9.730;2022-08-19T06:03:50;34.80;;;32.60;;
9254;SDS011;4663;49.120;9.730;2022-08-19T06:06:15;38.60;;;36.20;;
9254;SDS011;4663;49.120;9.730;2022-08-19T06:08:41;35.03;;;32.90;;
9254;SDS011;4663;49.120;9.730;2022-08-19T06:11:12;47.65;;;44.83;;
9254;SDS011;4663;49.120;9.730;2022-08-19T06:13:39;34.63;;;32.20;;
9254;SDS011;4663;49.120;9.730;2022-08-19T06:16:04;35.55;;;33.42;;
9254;SDS011;4663;49.120;9.730;2022-08-19T06:18:30;38.00;;;35.47;;
9254;SDS011;4663;49.120;9.730;2022-08-19T06:20:55;37.13;;;34.60;;
9254;SDS011;4663;49.120;9.730;2022-08-19T06:23:20;36.25;;;33.85;;
9254;SDS011;4663;49.120;9.730;2022-08-19T06:25:46;37.33;;;35.03;;
9254;SDS011;4663;49.120;9.730;2022-08-19T06:28:12;35.58;;;33.33;;
9254;SDS011;4663;49.120;9.730;2022-08-19T06:30:37;36.75;;;34.50;;
9254;SDS011;4663;49.120;9.730;2022-08-19T06:33:03;36.65;;;34.22;;
9254;SDS011;4663;49.120;9.730;2022-08-19T06:35:28;37.72;;;35.33;;
9254;SDS011;4663;49.120;9.730;2022-08-19T06:37:54;39.15;;;36.65;;
9254;SDS011;4663;49.120;9.730;2022-08-19T06:40:20;38.47;;;35.97;;
9254;SDS011;4663;49.120;9.730;2022-08-19T06:42:45;41.95;;;39.20;;
9254;SDS011;4663;49.120;9.730;2022-08-19T06:45:11;42.78;;;40.03;;
9254;SDS011;4663;49.120;9.730;2022-08-19T06:47:36;40.58;;;38.05;;
9254;SDS011;4663;49.120;9.730;2022-08-19T06:50:02;41.83;;;39.22;;
9254;SDS011;4663;49.120;9.730;2022-08-19T06:52:30;41.00;;;38.53;;
9254;SDS011;4663;49.120;9.730;2022-08-19T06:54:57;41.15;;;38.47;;
9254;SDS011;4663;49.120;9.730;2022-08-19T06:57:25;44.05;;;41.15;;
9254;SDS011;4663;49.120;9.730;2022-08-19T06:59:51;42.15;;;39.33;;
9254;SDS011;4663;49.120;9.730;2022-08-19T07:02:17;43.92;;;41.28;;
9254;SDS011;4663;49.120;9.730;2022-08-19T07:04:43;42.40;;;39.80;;
9254;SDS011;4663;49.120;9.730;2022-08-19T07:07:10;44.85;;;41.95;;
9254;SDS011;4663;49.120;9.730;2022-08-19T07:09:38;42.28;;;39.78;;
9254;SDS011;4663;49.120;9.730;2022-08-19T07:12:05;45.10;;;42.33;;
9254;SDS011;4663;49.120;9.730;2022-08-19T07:14:33;43.20;;;40.58;;
9254;SDS011;4663;49.120;9.730;2022-08-19T07:17:02;61.88;;;58.42;;
9254;SDS011;4663;49.120;9.730;2022-08-19T07:19:28;46.97;;;44.10;;
9254;SDS011;4663;49.120;9.730;2022-08-19T07:21:54;44.50;;;41.75;;
9254;SDS011;4663;49.120;9.730;2022-08-19T07:24:21;42.80;;;40.17;;
9254;SDS011;4663;49.120;9.730;2022-08-19T07:26:50;42.10;;;39.47;;
9254;SDS011;4663;49.120;9.730;2022-08-19T07:29:17;37.28;;;34.80;;
9254;SDS011;4663;49.120;9.730;2022-08-19T07:31:44;35.80;;;33.50;;
9254;SDS011;4663;49.120;9.730;2022-08-19T07:34:10;38.08;;;35.17;;
9254;SDS011;4663;49.120;9.730;2022-08-19T07:36:39;35.42;;;33.17;;
9254;SDS011;4663;49.120;9.730;2022-08-19T07:39:16;35.47;;;33.10;;
9254;SDS011;4663;49.120;9.730;2022-08-19T07:41:46;36.15;;;33.78;;
9254;SDS011;4663;49.120;9.730;2022-08-19T07:44:12;37.05;;;34.45;;
9254;SDS011;4663;49.120;9.730;2022-08-19T07:46:39;38.83;;;36.25;;
9254;SDS011;4663;49.120;9.730;2022-08-19T07:49:09;39.13;;;36.45;;
9254;SDS011;4663;49.120;9.730;2022-08-19T07:51:41;37.53;;;35.15;;
9254;SDS011;4663;49.120;9.730;2022-08-19T07:54:07;39.00;;;36.42;;
9254;SDS011;4663;49.120;9.730;2022-08-19T07:56:32;37.78;;;35.13;;
9254;SDS011;4663;49.120;9.730;2022-08-19T07:58:57;37.15;;;34.90;;
9254;SDS011;4663;49.120;9.730;2022-08-19T08:01:24;38.08;;;35.75;;
9254;SDS011;4663;49.120;9.730;2022-08-19T08:03:51;39.13;;;36.55;;
9254;SDS011;4663;49.120;9.730;2022-08-19T08:06:40;36.90;;;34.70;;
9254;SDS011;4663;49.120;9.730;2022-08-19T08:09:26;39.53;;;37.08;;
9254;SDS011;4663;49.120;9.730;2022-08-19T08:11:56;41.17;;;38.63;;
9254;SDS011;4663;49.120;9.730;2022-08-19T08:14:33;45.03;;;42.20;;
9254;SDS011;4663;49.120;9.730;2022-08-19T08:17:01;42.42;;;39.75;;
9254;SDS011;4663;49.120;9.730;2022-08-19T08:19:28;42.63;;;39.97;;
9254;SDS011;4663;49.120;9.730;2022-08-19T08:21:55;38.40;;;35.95;;
9254;SDS011;4663;49.120;9.730;2022-08-19T08:24:22;39.45;;;36.97;;
9254;SDS011;4663;49.120;9.730;2022-08-19T08:26:49;42.00;;;39.33;;
9254;SDS011;4663;49.120;9.730;2022-08-19T08:29:14;43.80;;;41.00;;
9254;SDS011;4663;49.120;9.730;2022-08-19T08:31:41;40.55;;;38.03;;
9254;SDS011;4663;49.120;9.730;2022-08-19T08:34:08;42.13;;;39.60;;
9254;SDS011;4663;49.120;9.730;2022-08-19T08:36:37;41.67;;;38.97;;
9254;SDS011;4663;49.120;9.730;2022-08-19T08:39:07;42.53;;;39.92;;
9254;SDS011;4663;49.120;9.730;2022-08-19T08:41:40;41.35;;;38.83;;
9254;SDS011;4663;49.120;9.730;2022-08-19T08:44:20;41.28;;;38.80;;
9254;SDS011;4663;49.120;9.730;2022-08-19T08:46:49;43.40;;;40.80;;
9254;SDS011;4663;49.120;9.730;2022-08-19T08:54:32;43.53;;;40.90;;
9254;SDS011;4663;49.120;9.730;2022-08-19T08:57:29;45.72;;;43.00;;
9254;SDS011;4663;49.120;9.730;2022-08-19T09:00:00;44.75;;;42.15;;
9254;SDS011;4663;49.120;9.730;2022-08-19T09:02:30;47.30;;;44.42;;
9254;SDS011;4663;49.120;9.730;2022-08-19T09:04:56;45.80;;;43.00;;
9254;SDS011;4663;49.120;9.730;2022-08-19T09:09:57;44.55;;;41.70;;
9254;SDS011;4663;49.120;9.730;2022-08-19T09:15:06;43.33;;;40.70;;
9254;SDS011;4663;49.120;9.730;2022-08-19T09:17:34;44.95;;;42.15;;
9254;SDS011;4663;49.120;9.730;2022-08-19T09:20:05;43.33;;;40.65;;
9254;SDS011;4663;49.120;9.730;2022-08-19T09:22:33;44.28;;;41.47;;
9254;SDS011;4663;49.120;9.730;2022-08-19T09:25:00;44.20;;;41.42;;
9254;SDS011;4663;49.120;9.730;2022-08-19T09:27:27;43.50;;;40.90;;
9254;SDS011;4663;49.120;9.730;2022-08-19T09:29:53;45.13;;;42.42;;
9254;SDS011;4663;49.120;9.730;2022-08-19T09:32:19;45.55;;;42.65;;
9254;SDS011;4663;49.120;9.730;2022-08-19T09:34:46;45.20;;;42.42;;
9254;SDS011;4663;49.120;9.730;2022-08-19T09:37:11;43.28;;;40.67;;
9254;SDS011;4663;49.120;9.730;2022-08-19T09:39:37;43.03;;;40.42;;
9254;SDS011;4663;49.120;9.730;2022-08-19T09:42:03;44.22;;;41.55;;
9254;SDS011;4663;49.120;9.730;2022-08-19T09:44:29;44.80;;;42.10;;
9254;SDS011;4663;49.120;9.730;2022-08-19T09:46:55;42.08;;;39.35;;
9254;SDS011;4663;49.120;9.730;2022-08-19T09:49:21;41.63;;;39.03;;
9254;SDS011;4663;49.120;9.730;2022-08-19T09:51:49;43.22;;;40.50;;
9254;SDS011;4663;49.120;9.730;2022-08-19T09:54:15;42.22;;;39.55;;
9254;SDS011;4663;49.120;9.730;2022-08-19T09:56:41;42.28;;;39.78;;
9254;SDS011;4663;49.120;9.730;2022-08-19T09:59:06;42.55;;;40.05;;
9254;SDS011;4663;49.120;9.730;2022-08-19T10:01:32;46.47;;;43.53;;
9254;SDS011;4663;49.120;9.730;2022-08-19T10:03:58;41.28;;;38.58;;
9254;SDS011;4663;49.120;9.730;2022-08-19T10:06:26;44.03;;;41.42;;
9254;SDS011;4663;49.120;9.730;2022-08-19T10:08:58;45.08;;;42.40;;
9254;SDS011;4663;49.120;9.730;2022-08-19T10:11:24;44.63;;;41.95;;
9254;SDS011;4663;49.120;9.730;2022-08-19T10:13:51;45.83;;;43.13;;
9254;SDS011;4663;49.120;9.730;2022-08-19T10:16:18;44.17;;;41.70;;
9254;SDS011;4663;49.120;9.730;2022-08-19T10:18:48;42.45;;;39.88;;
9254;SDS011;4663;49.120;9.730;2022-08-19T10:23:49;43.42;;;40.65;;
9254;SDS011;4663;49.120;9.730;2022-08-19T10:26:19;44.15;;;41.47;;
9254;SDS011;4663;49.120;9.730;2022-08-19T10:28:47;45.92;;;43.13;;
9254;SDS011;4663;49.120;9.730;2022-08-19T10:31:15;45.92;;;43.33;;
9254;SDS011;4663;49.120;9.730;2022-08-19T10:33:44;44.03;;;41.42;;
9254;SDS011;4663;49.120;9.730;2022-08-19T10:36:13;43.95;;;41.47;;
9254;SDS011;4663;49.120;9.730;2022-08-19T10:38:42;43.45;;;40.85;;
9254;SDS011;4663;49.120;9.730;2022-08-19T10:41:21;44.75;;;42.22;;
9254;SDS011;4663;49.120;9.730;2022-08-19T10:43:55;44.60;;;42.03;;
9254;SDS011;4663;49.120;9.730;2022-08-19T10:46:26;43.22;;;40.80;;
9254;SDS011;4663;49.120;9.730;2022-08-19T10:48:53;43.17;;;40.65;;
9254;SDS011;4663;49.120;9.730;2022-08-19T10:51:19;43.72;;;41.28;;
9254;SDS011;4663;49.120;9.730;2022-08-19T10:54:04;43.80;;;41.20;;
9254;SDS011;4663;49.120;9.730;2022-08-19T10:56:30;42.47;;;39.80;;
9254;SDS011;4663;49.120;9.730;2022-08-19T10:59:15;44.15;;;41.53;;
9254;SDS011;4663;49.120;9.730;2022-08-19T11:01:42;45.90;;;43.22;;
9254;SDS011;4663;49.120;9.730;2022-08-19T11:04:09;43.60;;;41.05;;
9254;SDS011;4663;49.120;9.730;2022-08-19T11:06:36;45.05;;;42.22;;
9254;SDS011;4663;49.120;9.730;2022-08-19T11:09:03;45.50;;;42.80;;
9254;SDS011;4663;49.120;9.730;2022-08-19T11:11:30;45.00;;;42.40;;
9254;SDS011;4663;49.120;9.730;2022-08-19T11:13:57;45.05;;;42.45;;
9254;SDS011;4663;49.120;9.730;2022-08-19T11:16:23;46.40;;;43.70;;
9254;SDS011;4663;49.120;9.730;2022-08-19T11:18:52;45.72;;;43.13;;
9254;SDS011;4663;49.120;9.730;2022-08-19T11:21:33;48.67;;;45.88;;
9254;SDS011;4663;49.120;9.730;2022-08-19T11:24:01;40.20;;;37.67;;
9254;SDS011;4663;49.120;9.730;2022-08-19T11:26:30;40.50;;;38.00;;
9254;SDS011;4663;49.120;9.730;2022-08-19T11:28:57;37.83;;;35.33;;
9254;SDS011;4663;49.120;9.730;2022-08-19T11:31:25;38.70;;;36.25;;
9254;SDS011;4663;49.120;9.730;2022-08-19T11:33:52;37.33;;;34.90;;
9254;SDS011;4663;49.120;9.730;2022-08-19T11:36:19;35.97;;;33.67;;
9254;SDS011;4663;49.120;9.730;2022-08-19T11:38:46;38.45;;;36.08;;
9254;SDS011;4663;49.120;9.730;2022-08-19T11:41:13;38.53;;;36.17;;
9254;SDS011;4663;49.120;9.730;2022-08-19T11:43:40;38.28;;;35.85;;
9254;SDS011;4663;49.120;9.730;2022-08-19T11:46:10;40.00;;;37.50;;
9254;SDS011;4663;49.120;9.730;2022-08-19T11:48:38;44.15;;;41.53;;
9254;SDS011;4663;49.120;9.730;2022-08-19T11:51:05;45.35;;;42.60;;
9254;SDS011;4663;49.120;9.730;2022-08-19T11:53:36;43.10;;;40.25;;
9254;SDS011;4663;49.120;9.730;2022-08-19T11:56:03;45.88;;;42.80;;
9254;SDS011;4663;49.120;9.730;2022-08-19T11:58:29;46.55;;;43.72;;
9254;SDS011;4663;49.120;9.730;2022-08-19T12:00:55;44.45;;;41.75;;
9254;SDS011;4663;49.120;9.730;2022-08-19T12:03:21;44.70;;;41.90;;
9254;SDS011;4663;49.120;9.730;2022-08-19T12:05:47;43.53;;;40.83;;
9254;SDS011;4663;49.120;9.730;2022-08-19T12:08:12;43.08;;;40.25;;
9254;SDS011;4663;49.120;9.730;2022-08-19T12:10:40;43.28;;;40.53;;
9254;SDS011;4663;49.120;9.730;2022-08-19T12:13:07;44.08;;;41.30;;
9254;SDS011;4663;49.120;9.730;2022-08-19T12:15:36;45.25;;;42.40;;
9254;SDS011;4663;49.120;9.730;2022-08-19T12:18:03;47.75;;;44.53;;
9254;SDS011;4663;49.120;9.730;2022-08-19T12:20:29;44.05;;;41.15;;
9254;SDS011;4663;49.120;9.730;2022-08-19T12:22:55;42.40;;;39.50;;
9254;SDS011;4663;49.120;9.730;2022-08-19T12:25:20;43.95;;;40.95;;
9254;SDS011;4663;49.120;9.730;2022-08-19T12:27:46;45.00;;;42.22;;
9254;SDS011;4663;49.120;9.730;2022-08-19T12:30:12;41.78;;;39.15;;
9254;SDS011;4663;49.120;9.730;2022-08-19T12:32:39;44.83;;;41.97;;
9254;SDS011;4663;49.120;9.730;2022-08-19T12:35:06;44.42;;;41.63;;
9254;SDS011;4663;49.120;9.730;2022-08-19T12:37:34;43.30;;;40.65;;
9254;SDS011;4663;49.120;9.730;2022-08-19T12:39:59;44.75;;;41.97;;
9254;SDS011;4663;49.120;9.730;2022-08-19T12:42:24;43.80;;;41.05;;
9254;SDS011;4663;49.120;9.730;2022-08-19T12:44:50;43.70;;;40.92;;
9254;SDS011;4663;49.120;9.730;2022-08-19T12:47:16;46.38;;;43.30;;
9254;SDS011;4663;49.120;9.730;2022-08-19T12:49:42;42.25;;;39.65;;
9254;SDS011;4663;49.120;9.730;2022-08-19T12:52:08;43.78;;;41.03;;
9254;SDS011;4663;49.120;9.730;2022-08-19T12:54:34;42.90;;;40.05;;
9254;SDS011;4663;49.120;9.730;2022-08-19T12:57:08;41.20;;;38.55;;
9254;SDS011;4663;49.120;9.730;2022-08-19T12:59:36;40.13;;;37.47;;
9254;SDS011;4663;49.120;9.730;2022-08-19T13:02:06;43.55;;;40.83;;
9254;SDS011;4663;49.120;9.730;2022-08-19T13:04:32;44.70;;;41.90;;
9254;SDS011;4663;49.120;9.730;2022-08-19T13:07:01;42.58;;;39.90;;
9254;SDS011;4663;49.120;9.730;2022-08-19T13:09:27;43.90;;;41.10;;
9254;SDS011;4663;49.120;9.730;2022-08-19T13:11:53;46.10;;;43.05;;
9254;SDS011;4663;49.120;9.730;2022-08-19T13:14:18;43.35;;;40.55;;
9254;SDS011;4663;49.120;9.730;2022-08-19T13:16:44;46.92;;;44.00;;
9254;SDS011;4663;49.120;9.730;2022-08-19T13:19:09;44.95;;;42.08;;
9254;SDS011;4663;49.120;9.730;2022-08-19T13:21:36;43.33;;;40.60;;
9254;SDS011;4663;49.120;9.730;2022-08-19T13:24:02;42.50;;;39.97;;
9254;SDS011;4663;49.120;9.730;2022-08-19T13:26:28;43.17;;;40.67;;
9254;SDS011;4663;49.120;9.730;2022-08-19T13:28:53;43.95;;;41.22;;
9254;SDS011;4663;49.120;9.730;2022-08-19T13:31:39;43.15;;;40.55;;
9254;SDS011;4663;49.120;9.730;2022-08-19T13:34:31;45.25;;;42.47;;
9254;SDS011;4663;49.120;9.730;2022-08-19T13:37:00;43.13;;;40.55;;
9254;SDS011;4663;49.120;9.730;2022-08-19T13:39:30;44.78;;;42.08;;
9254;SDS011;4663;49.120;9.730;2022-08-19T13:41:57;43.80;;;41.30;;
9254;SDS011;4663;49.120;9.730;2022-08-19T13:44:24;45.65;;;42.90;;
9254;SDS011;4663;49.120;9.730;2022-08-19T13:46:51;44.22;;;41.55;;
9254;SDS011;4663;49.120;9.730;2022-08-19T13:49:17;42.17;;;39.58;;
9254;SDS011;4663;49.120;9.730;2022-08-19T13:51:45;45.25;;;42.55;;
9254;SDS011;4663;49.120;9.730;2022-08-19T13:54:10;41.70;;;39.20;;
9254;SDS011;4663;49.120;9.730;2022-08-19T13:56:40;45.80;;;43.00;;
9254;SDS011;4663;49.120;9.730;2022-08-19T13:59:07;47.65;;;44.83;;
9254;SDS011;4663;49.120;9.730;2022-08-19T14:01:33;49.13;;;46.13;;
9254;SDS011;4663;49.120;9.730;2022-08-19T14:03:59;44.38;;;41.85;;
9254;SDS011;4663;49.120;9.730;2022-08-19T14:06:25;49.88;;;46.92;;
9254;SDS011;4663;49.120;9.730;2022-08-19T14:08:51;46.25;;;43.50;;
9254;SDS011;4663;49.120;9.730;2022-08-19T14:11:17;76.95;;;72.68;;
9254;SDS011;4663;49.120;9.730;2022-08-19T14:13:43;48.58;;;45.67;;
9254;SDS011;4663;49.120;9.730;2022-08-19T14:16:09;51.97;;;48.85;;
9254;SDS011;4663;49.120;9.730;2022-08-19T14:18:37;50.42;;;47.50;;
9254;SDS011;4663;49.120;9.730;2022-08-19T14:21:03;50.13;;;47.15;;
9254;SDS011;4663;49.120;9.730;2022-08-19T14:23:30;47.60;;;44.63;;
9254;SDS011;4663;49.120;9.730;2022-08-19T14:26:06;48.08;;;45.17;;
9254;SDS011;4663;49.120;9.730;2022-08-19T14:28:34;44.70;;;41.80;;
9254;SDS011;4663;49.120;9.730;2022-08-19T14:31:00;39.78;;;37.38;;
9254;SDS011;4663;49.120;9.730;2022-08-19T14:33:25;39.00;;;36.60;;
9254;SDS011;4663;49.120;9.730;2022-08-19T14:35:50;39.60;;;37.17;;
9254;SDS011;4663;49.120;9.730;2022-08-19T14:38:16;38.42;;;36.15;;
9254;SDS011;4663;49.120;9.730;2022-08-19T14:40:43;38.63;;;36.28;;
9254;SDS011;4663;49.120;9.730;2022-08-19T14:43:09;40.47;;;38.08;;
9254;SDS011;4663;49.120;9.730;2022-08-19T14:45:36;39.90;;;37.50;;
9254;SDS011;4663;49.120;9.730;2022-08-19T14:48:06;41.78;;;39.33;;
9254;SDS011;4663;49.120;9.730;2022-08-19T14:50:33;37.28;;;34.97;;
9254;SDS011;4663;49.120;9.730;2022-08-19T14:53:01;39.42;;;37.08;;
9254;SDS011;4663;49.120;9.730;2022-08-19T14:55:30;42.85;;;40.35;;
9254;SDS011;4663;49.120;9.730;2022-08-19T14:57:57;39.60;;;37.30;;
9254;SDS011;4663;49.120;9.730;2022-08-19T15:00:23;41.03;;;38.65;;
9254;SDS011;4663;49.120;9.730;2022-08-19T15:02:49;39.47;;;37.08;;
9254;SDS011;4663;49.120;9.730;2022-08-19T15:05:15;40.28;;;37.80;;
9254;SDS011;4663;49.120;9.730;2022-08-19T15:07:41;38.97;;;36.67;;